KHVS/HVS METAR and TAF weather

Enter ICAO airport designator
Station Type Date Time Source
KHVS METAR 2019/09/20 20:15 UTC NOAA

KHVS 202015Z AUTO 00000KT 10SM CLR 28/10 A3024 RMK AO2


Station Type Date Time Source
KHVS Decoded METAR 2019/09/20 20:15 UTC NOAA

Station name not available
Sep 20, 2019 - 04:15 PM EDT / 2019.09.20 2015 UTC
Wind: Calm:0
Visibility: 10 mile(s):0
Sky conditions: clear
Temperature: 82 F (28 C)
Dew Point: 50 F (10 C)
Relative Humidity: 32%
Pressure (altimeter): 30.24 in. Hg (1024 hPa)
ob: KHVS 202015Z AUTO 00000KT 10SM CLR 28/10 A3024 RMK AO2
cycle: 20

Station Type Date Time Source
KHVS TAF UTC NOAA

Error!

Example: see airport list